Time;durP1;ratioP1;P1;durP2;ratioP2;P2;SDS_P1;SDS_P2;PMS_P1;PMS_P2;Temp;Humidity;BMP_temperature;BMP_pressure;BME280_temperature;BME280_humidity;BME280_pressure;Samples;Min_cycle;Max_cycle;Signal;HPM_P1;HPM_P2
2022/11/15 00:01:19;;;;;;;184.45;76.43;;;;;;;6.07;100.00;100739.25;5054702;28;20025;-46
2022/11/15 00:03:45;;;;;;;194.93;79.10;;;;;;;6.10;100.00;100731.69;5054150;28;20036;-47
2022/11/15 00:06:11;;;;;;;175.75;75.82;;;;;;;6.13;100.00;100734.38;5054260;28;20036;-45
2022/11/15 00:08:36;;;;;;;196.77;78.78;;;;;;;6.17;100.00;100735.41;5054777;28;20021;-45
2022/11/15 00:11:02;;;;;;;190.23;78.30;;;;;;;6.20;100.00;100736.44;5054092;28;20089;-46
2022/11/15 00:13:28;;;;;;;177.77;75.80;;;;;;;6.24;100.00;100728.06;5053944;28;20104;-47
2022/11/15 00:15:57;;;;;;;183.32;78.07;;;;;;;6.28;100.00;100731.66;5054187;28;20049;-46
2022/11/15 00:18:23;;;;;;;168.82;74.60;;;;;;;6.33;100.00;100731.88;5054293;28;20057;-47
2022/11/15 00:20:48;;;;;;;174.75;74.10;;;;;;;6.37;100.00;100719.25;5053487;28;20060;-46
2022/11/15 00:23:13;;;;;;;174.57;73.90;;;;;;;6.41;100.00;100725.41;5054468;28;20091;-47
2022/11/15 00:25:39;;;;;;;176.85;76.47;;;;;;;6.46;100.00;100733.31;5054097;28;20047;-43
2022/11/15 00:28:04;;;;;;;164.70;72.15;;;;;;;6.49;100.00;100724.03;5053440;28;20040;-44
2022/11/15 00:30:29;;;;;;;152.32;68.90;;;;;;;6.53;100.00;100730.19;5054194;28;20052;-46
2022/11/15 00:32:55;;;;;;;145.70;69.43;;;;;;;6.55;100.00;100729.44;5053862;28;20468;-44
2022/11/15 00:35:21;;;;;;;155.32;70.80;;;;;;;6.60;100.00;100727.09;5053812;28;20511;-46
2022/11/15 00:37:47;;;;;;;147.40;66.63;;;;;;;6.62;100.00;100720.34;5053729;28;20491;-45
2022/11/15 00:40:13;;;;;;;148.40;67.93;;;;;;;6.65;100.00;100727.28;5053080;28;20060;-45
2022/11/15 00:42:39;;;;;;;143.73;67.93;;;;;;;6.69;100.00;100722.38;5053543;28;20075;-46
2022/11/15 00:45:04;;;;;;;139.10;67.00;;;;;;;6.72;100.00;100721.63;5053921;28;20419;-44
2022/11/15 00:47:30;;;;;;;140.35;66.53;;;;;;;6.80;100.00;100717.69;5053289;28;20025;-46
2022/11/15 00:49:55;;;;;;;134.65;65.10;;;;;;;6.82;100.00;100710.97;5053618;28;20028;-45
2022/11/15 00:52:20;;;;;;;140.02;67.40;;;;;;;6.84;100.00;100717.03;5054210;28;20024;-45
2022/11/15 00:54:46;;;;;;;137.65;63.88;;;;;;;6.91;100.00;100707.91;5052859;28;20040;-45
2022/11/15 00:57:11;;;;;;;137.98;63.35;;;;;;;6.91;100.00;100703.66;5053426;28;20045;-47
2022/11/15 00:59:36;;;;;;;137.63;63.15;;;;;;;6.97;100.00;100707.28;5053652;28;20489;-44
2022/11/15 01:02:01;;;;;;;119.03;59.72;;;;;;;6.99;100.00;100700.56;5052680;28;20040;-46
2022/11/15 01:04:27;;;;;;;125.10;59.97;;;;;;;7.03;100.00;100700.72;5053805;28;20033;-46
2022/11/15 01:06:52;;;;;;;126.78;60.50;;;;;;;7.09;100.00;100700.13;5053058;28;20017;-46
2022/11/15 01:09:18;;;;;;;131.30;61.13;;;;;;;7.14;100.00;100696.06;5053143;28;20021;-45
2022/11/15 01:11:43;;;;;;;124.80;61.25;;;;;;;7.20;100.00;100701.41;5053064;28;20037;-43
2022/11/15 01:14:08;;;;;;;127.13;62.53;;;;;;;7.24;100.00;100695.63;5053180;28;20020;-47
2022/11/15 01:16:34;;;;;;;122.20;61.13;;;;;;;7.31;100.00;100695.84;5053041;28;20032;-48
2022/11/15 01:18:59;;;;;;;127.65;59.72;;;;;;;7.37;100.00;100703.78;5053133;28;20033;-44
2022/11/15 01:21:25;;;;;;;114.05;60.33;;;;;;;7.43;100.00;100691.22;5053157;28;20039;-48
2022/11/15 01:23:55;;;;;;;116.03;59.95;;;;;;;7.45;100.00;100697.31;5052548;28;20040;-45
2022/11/15 01:26:21;;;;;;;115.43;58.70;;;;;;;7.50;100.00;100685.53;5053223;28;20053;-47
2022/11/15 01:28:46;;;;;;;126.28;60.80;;;;;;;7.55;100.00;100676.34;5052734;28;20032;-45
2022/11/15 01:31:15;;;;;;;114.05;57.45;;;;;;;7.61;100.00;100682.53;5052643;28;20032;-47
2022/11/15 01:33:40;;;;;;;121.28;60.05;;;;;;;7.64;100.00;100678.38;5052978;28;20025;-42
2022/11/15 01:36:14;;;;;;;117.53;59.50;;;;;;;7.70;100.00;100672.63;5052912;28;20029;-45
2022/11/15 01:38:40;;;;;;;115.05;60.80;;;;;;;7.71;100.00;100671.81;5052376;28;20060;-45
2022/11/15 01:41:05;;;;;;;118.20;59.55;;;;;;;7.73;100.00;100667.59;5053184;28;20460;-43
2022/11/15 01:43:34;;;;;;;118.63;60.75;;;;;;;7.81;100.00;100671.34;5052364;28;20025;-46
2022/11/15 01:46:15;;;;;;;119.03;59.58;;;;;;;7.83;100.00;100674.81;5052509;28;20029;-46
2022/11/15 01:48:40;;;;;;;122.57;56.42;;;;;;;7.89;100.00;100671.63;5052550;28;20021;-43
2022/11/15 01:51:10;;;;;;;117.97;59.15;;;;;;;7.90;100.00;100676.81;5052507;28;20035;-47
2022/11/15 01:53:40;;;;;;;118.97;59.38;;;;;;;7.97;100.00;100682.19;5052903;28;20029;-47
2022/11/15 01:56:09;;;;;;;114.53;58.53;;;;;;;8.02;100.00;100672.97;5052614;28;20108;-46
2022/11/15 01:58:35;;;;;;;124.50;59.90;;;;;;;8.11;100.00;100669.84;5052025;28;20082;-44
2022/11/15 02:01:00;;;;;;;118.68;59.58;;;;;;;8.17;100.00;100670.97;5052595;28;20029;-48
2022/11/15 02:03:35;;;;;;;118.43;58.60;;;;;;;8.21;100.00;100675.38;5052765;28;20017;-48
2022/11/15 02:06:03;;;;;;;120.30;58.25;;;;;;;8.23;100.00;100666.03;5051849;28;20036;-44
2022/11/15 02:08:28;;;;;;;126.10;60.90;;;;;;;8.29;100.00;100661.94;5052909;28;20083;-45
2022/11/15 02:10:54;;;;;;;114.72;58.47;;;;;;;8.31;100.00;100663.72;5052122;28;20057;-48
2022/11/15 02:13:19;;;;;;;113.43;57.60;;;;;;;8.34;100.00;100652.69;5052353;28;20365;-45
2022/11/15 02:15:58;;;;;;;112.45;57.97;;;;;;;8.37;100.00;100653.69;5052325;28;20033;-47
2022/11/15 02:18:32;;;;;;;115.85;58.30;;;;;;;8.40;100.00;100655.47;5052329;28;20029;-47
2022/11/15 02:21:22;;;;;;;119.28;58.17;;;;;;;8.45;100.00;100648.81;5052100;28;20025;-46
2022/11/15 02:24:25;;;;;;;118.03;58.50;;;;;;;8.49;100.00;100642.13;5052186;28;20114;-46
2022/11/15 02:27:19;;;;;;;111.00;56.55;;;;;;;8.51;100.00;100641.38;5051650;28;20388;-47
2022/11/15 02:30:19;;;;;;;116.20;58.08;;;;;;;8.61;100.00;100639.09;5052326;28;20037;-46
2022/11/15 02:32:52;;;;;;;110.80;58.65;;;;;;;8.65;100.00;100648.66;5051366;28;20028;-44
2022/11/15 02:35:58;;;;;;;126.00;59.13;;;;;;;8.70;100.00;100636.84;5052744;28;20107;-48
2022/11/15 02:38:35;;;;;;;116.88;59.28;;;;;;;8.73;100.00;100642.09;5046038;28;20089;-47
2022/11/15 02:41:13;;;;;;;121.22;61.70;;;;;;;8.80;100.00;100644.03;5051751;28;20074;-47
2022/11/15 02:44:07;;;;;;;;;;;;;;;8.84;100.00;100640.75;5053055;28;20045;-47
2022/11/15 02:49:31;;;;;;;116.97;60.38;;;;;;;8.93;100.00;100629.03;5052555;28;20044;-45
2022/11/15 02:51:56;;;;;;;125.72;62.40;;;;;;;8.97;100.00;100625.75;5051782;28;20017;-46
2022/11/15 02:54:24;;;;;;;126.50;61.20;;;;;;;8.99;100.00;100624.09;5051734;28;20025;-46
2022/11/15 02:56:53;;;;;;;118.78;60.33;;;;;;;9.03;100.00;100620.81;5051880;28;20129;-47
2022/11/15 02:59:45;;;;;;;114.60;59.35;;;;;;;9.03;100.00;100620.81;5052098;28;20470;-44
2022/11/15 03:02:31;;;;;;;116.20;59.33;;;;;;;9.06;100.00;100620.88;5051623;28;20032;-46
2022/11/15 03:05:19;;;;;;;119.30;59.42;;;;;;;9.09;100.00;100609.81;5053717;28;20151;-47
2022/11/15 03:08:08;;;;;;;116.85;58.88;;;;;;;9.11;100.00;100611.63;5055559;28;20132;-46
2022/11/15 03:11:02;;;;;;;110.60;56.80;;;;;;;9.13;100.00;100612.56;5055706;28;20025;-46
2022/11/15 03:13:58;;;;;;;117.47;61.28;;;;;;;9.16;100.00;100620.34;5053252;28;20086;-44
2022/11/15 03:16:50;;;;;;;117.80;59.67;;;;;;;9.17;100.00;100623.81;5054551;28;20546;-47
2022/11/15 03:19:26;;;;;;;115.22;57.50;;;;;;;9.19;100.00;100624.72;5055731;28;20029;-46
2022/11/15 03:21:54;;;;;;;112.70;57.35;;;;;;;9.17;100.00;100616.97;5054955;28;20027;-43
2022/11/15 03:24:22;;;;;;;110.93;58.03;;;;;;;9.22;100.00;100623.13;5055583;28;20025;-48
2022/11/15 03:26:48;;;;;;;112.32;57.50;;;;;;;9.22;100.00;100623.13;5055231;28;20057;-47
2022/11/15 03:29:17;;;;;;;111.35;58.40;;;;;;;9.23;100.00;100626.56;5054813;28;20797;-47
2022/11/15 03:31:48;;;;;;;106.68;56.67;;;;;;;9.27;100.00;100623.28;5055296;28;20112;-45
2022/11/15 03:34:34;;;;;;;109.03;56.45;;;;;;;9.27;100.00;100619.81;5055405;28;20061;-48
2022/11/15 03:37:00;;;;;;;111.00;57.10;;;;;;;9.29;100.00;100618.19;5054548;28;20036;-47
2022/11/15 03:39:25;;;;;;;120.78;58.63;;;;;;;9.29;100.00;100620.75;5055165;28;20029;-46
2022/11/15 03:42:06;;;;;;;109.25;57.05;;;;;;;9.30;100.00;100623.38;5054573;28;20036;-47
2022/11/15 03:44:54;;;;;;;112.97;58.30;;;;;;;9.32;100.00;100618.25;5054917;28;20025;-47
2022/11/15 03:47:53;;;;;;;116.68;58.00;;;;;;;9.33;100.00;100625.16;5055068;28;20372;-47
2022/11/15 03:50:20;;;;;;;111.75;57.75;;;;;;;9.35;100.00;100620.94;5054516;28;20029;-48
2022/11/15 03:52:48;;;;;;;114.30;59.70;;;;;;;9.37;100.00;100627.00;5054840;28;20071;-46
2022/11/15 03:55:16;;;;;;;124.50;59.58;;;;;;;9.35;100.00;100618.38;5054888;28;20017;-48
2022/11/15 03:57:42;;;;;;;117.47;60.58;;;;;;;9.37;100.00;100619.28;5053969;28;20052;-45
2022/11/15 04:00:08;;;;;;;123.55;62.40;;;;;;;9.39;100.00;100617.63;5054886;28;20112;-46
2022/11/15 04:02:33;;;;;;;135.10;63.63;;;;;;;9.42;100.00;100616.88;5054541;28;20111;-47
2022/11/15 04:04:58;;;;;;;129.10;63.97;;;;;;;9.44;100.00;100622.91;5054158;28;20071;-46
2022/11/15 04:07:23;;;;;;;134.48;63.22;;;;;;;9.47;100.00;100620.44;5054679;28;20036;-47
2022/11/15 04:10:05;;;;;;;133.70;66.30;;;;;;;9.49;100.00;100617.09;5054259;28;20477;-43
2022/11/15 04:12:35;;;;;;;143.85;68.20;;;;;;;9.51;100.00;100620.56;5054166;28;20028;-44
2022/11/15 04:15:08;;;;;;;143.82;68.63;;;;;;;9.53;100.00;100618.94;5054328;28;20541;-45
2022/11/15 04:17:45;;;;;;;152.95;69.75;;;;;;;9.54;100.00;100614.63;5054487;28;20036;-45
2022/11/15 04:25:49;;;;;;;159.57;70.28;;;;;;;9.55;100.00;100613.81;5053826;28;20036;-45
2022/11/15 04:28:14;;;;;;;150.13;68.05;;;;;;;9.51;100.00;100612.84;5054307;28;20572;-47
2022/11/15 04:30:40;;;;;;;144.20;68.38;;;;;;;9.52;100.00;100611.16;5053974;28;20119;-47
2022/11/15 04:33:05;;;;;;;147.52;68.70;;;;;;;9.51;100.00;100614.56;5053395;28;20021;-45
2022/11/15 04:35:30;;;;;;;159.07;67.50;;;;;;;9.52;100.00;100609.47;5054270;28;20047;-48
2022/11/15 04:37:56;;;;;;;151.25;69.93;;;;;;;9.50;100.00;100607.66;5053623;28;20545;-47
2022/11/15 04:40:22;;;;;;;141.70;68.43;;;;;;;9.45;100.00;100610.13;5053773;28;20029;-47
2022/11/15 04:42:47;;;;;;;152.52;69.30;;;;;;;9.47;100.00;100613.59;5054012;28;20032;-47
2022/11/15 04:45:12;;;;;;;153.85;66.82;;;;;;;9.47;100.00;100618.75;5053863;28;20036;-47
2022/11/15 04:47:38;;;;;;;142.75;68.13;;;;;;;9.44;100.00;100618.66;5053485;28;20029;-47
2022/11/15 04:50:03;;;;;;;145.70;69.43;;;;;;;9.49;100.00;100622.25;5053794;28;20060;-47
2022/11/15 04:52:29;;;;;;;144.50;66.45;;;;;;;9.48;100.00;100619.63;5053582;28;20534;-47
2022/11/15 04:54:54;;;;;;;140.00;64.28;;;;;;;9.47;100.00;100616.16;5053132;28;20025;-46
2022/11/15 04:57:19;;;;;;;140.27;64.30;;;;;;;9.46;100.00;100613.56;5053545;28;20045;-48
2022/11/15 04:59:45;;;;;;;140.23;65.43;;;;;;;9.49;100.00;100617.09;5053320;28;20475;-46
2022/11/15 05:02:10;;;;;;;146.30;64.63;;;;;;;9.48;100.00;100610.19;5053376;28;20440;-46
2022/11/15 05:04:35;;;;;;;138.05;66.15;;;;;;;9.48;100.00;100614.47;5053792;28;20033;-45
2022/11/15 05:07:01;;;;;;;146.00;67.55;;;;;;;9.48;100.00;100619.63;5053023;28;20028;-46
2022/11/15 05:09:27;;;;;;;135.20;61.63;;;;;;;9.47;100.00;100613.59;5052938;28;20111;-47
2022/11/15 05:11:52;;;;;;;139.05;63.67;;;;;;;9.46;100.00;100609.25;5053175;28;20159;-46
2022/11/15 05:14:17;;;;;;;139.07;65.40;;;;;;;9.46;100.00;100611.84;5053473;28;20099;-48
2022/11/15 05:16:43;;;;;;;150.15;65.35;;;;;;;9.48;100.00;100615.34;5052597;28;20025;-47
2022/11/15 05:19:08;;;;;;;136.95;65.05;;;;;;;9.48;100.00;100605.06;5053301;28;20066;-44
2022/11/15 05:21:34;;;;;;;139.60;63.28;;;;;;;9.50;100.00;100611.13;5052795;28;20066;-47
2022/11/15 05:24:00;;;;;;;137.48;63.42;;;;;;;9.47;100.00;100613.59;5052878;28;20021;-47
2022/11/15 05:26:26;;;;;;;144.35;64.05;;;;;;;9.48;100.00;100602.47;5053200;28;20384;-46
2022/11/15 05:28:53;;;;;;;142.52;63.92;;;;;;;9.49;100.00;100599.09;5052153;28;20029;-47
2022/11/15 05:31:19;;;;;;;126.93;66.28;;;;;;;9.51;100.00;100601.69;5053371;28;20108;-47
2022/11/15 05:33:44;;;;;;;136.68;64.95;;;;;;;9.52;100.00;100596.59;5052693;28;20104;-48
2022/11/15 05:36:17;;;;;;;134.93;65.25;;;;;;;9.49;100.00;100611.94;5052516;28;20472;-47
2022/11/15 05:38:43;;;;;;;131.93;62.33;;;;;;;9.51;100.00;100602.56;5052960;28;20033;-48
2022/11/15 05:41:09;;;;;;;133.95;62.97;;;;;;;9.50;100.00;100603.41;5052909;28;20028;-46
2022/11/15 05:43:38;;;;;;;144.43;65.80;;;;;;;9.52;100.00;100596.59;5052407;28;20095;-46
2022/11/15 05:46:04;;;;;;;138.95;64.20;;;;;;;9.50;100.00;100598.28;5052732;28;20025;-45
2022/11/15 05:48:30;;;;;;;136.63;63.28;;;;;;;9.50;100.00;100587.97;5052683;28;20032;-48
2022/11/15 05:50:56;;;;;;;134.23;63.13;;;;;;;9.47;100.00;100593.00;5052133;28;20025;-48
2022/11/15 05:53:24;;;;;;;135.10;61.78;;;;;;;9.48;100.00;100592.19;5052714;28;20384;-48
2022/11/15 05:55:50;;;;;;;129.80;61.42;;;;;;;9.47;100.00;100603.31;5052474;28;20072;-46
2022/11/15 05:58:15;;;;;;;129.80;61.63;;;;;;;9.43;100.00;100595.47;5052010;28;20492;-43
2022/11/15 06:00:42;;;;;;;134.23;61.83;;;;;;;9.44;100.00;100607.47;5052640;28;20037;-43
2022/11/15 06:03:08;;;;;;;135.00;62.58;;;;;;;9.43;100.00;100609.19;5052629;28;20048;-45
2022/11/15 06:05:33;;;;;;;137.73;62.72;;;;;;;9.48;100.00;100610.19;5052372;28;20056;-46
2022/11/15 06:07:59;;;;;;;134.00;63.13;;;;;;;9.48;100.00;100617.91;5052648;28;20414;-45
2022/11/15 06:10:24;;;;;;;135.32;61.70;;;;;;;9.46;100.00;100621.28;5052708;28;20033;-45
2022/11/15 06:12:59;;;;;;;126.90;61.00;;;;;;;9.49;100.00;100616.19;5051819;28;20024;-47
2022/11/15 06:15:24;;;;;;;137.00;59.90;;;;;;;9.48;100.00;100615.34;5052636;28;20040;-47
2022/11/15 06:17:49;;;;;;;133.93;63.47;;;;;;;9.52;100.00;100614.59;5051934;28;20032;-47
2022/11/15 06:20:15;;;;;;;135.18;61.80;;;;;;;9.53;100.00;100621.50;5052829;28;20364;-44
2022/11/15 06:22:40;;;;;;;121.63;57.47;;;;;;;9.54;100.00;100615.53;5052415;28;20032;-43
2022/11/15 06:25:06;;;;;;;132.85;60.38;;;;;;;9.55;100.00;100621.53;5052190;28;20371;-48
2022/11/15 06:27:31;;;;;;;124.40;59.40;;;;;;;9.54;100.00;100628.41;5052662;28;20032;-47
2022/11/15 06:29:56;;;;;;;130.07;60.95;;;;;;;9.56;100.00;100634.44;5052209;28;20067;-46
2022/11/15 06:32:21;;;;;;;131.38;60.47;;;;;;;9.56;100.00;100628.44;5051960;28;20025;-47
2022/11/15 06:34:47;;;;;;;139.63;63.05;;;;;;;9.58;100.00;100631.06;5052459;28;20025;-44
2022/11/15 06:37:12;;;;;;;126.20;59.15;;;;;;;9.56;100.00;100619.00;5052388;28;20040;-47
2022/11/15 06:39:37;;;;;;;126.32;60.17;;;;;;;9.56;100.00;100626.72;5053312;28;20384;-45
2022/11/15 06:42:02;;;;;;;125.80;59.08;;;;;;;9.58;100.00;100637.09;5056190;28;20375;-48
2022/11/15 06:44:28;;;;;;;122.85;58.65;;;;;;;9.56;100.00;100624.16;5056155;28;20029;-47
2022/11/15 06:46:53;;;;;;;126.75;58.63;;;;;;;9.59;100.00;100632.81;5055477;28;20029;-46
2022/11/15 06:49:18;;;;;;;124.35;58.97;;;;;;;9.56;100.00;100634.44;5056067;28;20029;-46
2022/11/15 06:51:44;;;;;;;117.35;57.85;;;;;;;9.55;100.00;100643.00;5055742;28;20371;-47
2022/11/15 06:54:09;;;;;;;117.07;57.85;;;;;;;9.54;100.00;100646.41;5055706;28;20021;-47
2022/11/15 06:56:34;;;;;;;122.95;57.00;;;;;;;9.53;100.00;100646.38;5055782;28;20052;-46
2022/11/15 06:58:59;;;;;;;115.55;54.13;;;;;;;9.50;100.00;100649.72;5055510;28;20490;-46
2022/11/15 07:01:25;;;;;;;107.80;51.80;;;;;;;9.52;100.00;100652.34;5055263;28;20029;-46
2022/11/15 07:03:50;;;;;;;106.40;52.42;;;;;;;9.48;100.00;100646.22;5055389;28;20032;-47
2022/11/15 07:06:15;;;;;;;96.68;49.35;;;;;;;9.47;100.00;100653.88;5055412;28;20040;-46
2022/11/15 07:08:41;;;;;;;99.32;47.78;;;;;;;9.46;100.00;100653.00;5055112;28;20114;-45
2022/11/15 07:11:08;;;;;;;101.60;47.78;;;;;;;9.42;100.00;100655.44;5055874;28;20029;-47
2022/11/15 07:13:34;;;;;;;84.70;45.95;;;;;;;9.43;100.00;100647.78;5055555;28;20052;-47
2022/11/15 07:16:05;;;;;;;98.60;47.60;;;;;;;9.41;100.00;100657.13;5054917;28;20049;-46
2022/11/15 07:18:30;;;;;;;91.70;45.30;;;;;;;9.42;100.00;100648.59;5055267;28;20108;-44
2022/11/15 07:21:00;;;;;;;90.45;43.72;;;;;;;9.39;100.00;100656.22;5055430;28;20475;-47
2022/11/15 07:23:25;;;;;;;88.15;43.50;;;;;;;9.42;100.00;100666.59;5055593;28;20024;-46
2022/11/15 07:25:50;;;;;;;90.57;43.70;;;;;;;9.42;100.00;100653.72;5054911;28;20036;-46
2022/11/15 07:28:16;;;;;;;96.18;44.92;;;;;;;9.41;100.00;100654.56;5055148;28;20025;-47
2022/11/15 07:30:41;;;;;;;96.82;45.42;;;;;;;9.41;100.00;100657.13;5055048;28;20021;-47
2022/11/15 07:33:06;;;;;;;86.18;43.90;;;;;;;9.41;100.00;100658.84;5055138;28;20033;-48
2022/11/15 07:35:31;;;;;;;86.80;43.08;;;;;;;9.44;100.00;100658.91;5054975;28;20419;-47
2022/11/15 07:37:59;;;;;;;91.53;43.90;;;;;;;9.43;100.00;100662.34;5055096;28;20043;-48
2022/11/15 07:40:26;;;;;;;78.07;41.35;;;;;;;9.46;100.00;100663.28;5055052;28;20025;-47
2022/11/15 07:42:55;;;;;;;84.00;42.20;;;;;;;9.47;100.00;100656.47;5054406;28;20036;-48
2022/11/15 07:45:22;;;;;;;82.75;42.42;;;;;;;9.44;100.00;100654.66;5055083;28;20033;-46
2022/11/15 07:47:49;;;;;;;87.30;43.45;;;;;;;9.45;100.00;100648.69;5054739;28;20033;-46
2022/11/15 07:50:15;;;;;;;88.85;43.00;;;;;;;9.43;100.00;100640.06;5054066;28;20483;-43
2022/11/15 07:52:40;;;;;;;84.95;41.75;;;;;;;9.45;100.00;100645.25;5054708;28;20029;-43
2022/11/15 07:55:06;;;;;;;86.68;43.47;;;;;;;9.44;100.00;100646.94;5054805;28;20045;-44
2022/11/15 07:57:31;;;;;;;76.60;41.47;;;;;;;9.47;100.00;100647.03;5054072;28;20102;-47
2022/11/15 07:59:57;;;;;;;88.70;41.85;;;;;;;9.47;100.00;100639.31;5054481;28;20422;-45
2022/11/15 08:02:22;;;;;;;90.28;40.60;;;;;;;9.50;100.00;100641.09;5054488;28;20036;-46
2022/11/15 08:04:47;;;;;;;78.78;40.60;;;;;;;9.52;100.00;100650.63;5053862;28;20025;-43
2022/11/15 08:07:13;;;;;;;74.75;38.58;;;;;;;9.53;100.00;100654.94;5054826;28;20064;-45
2022/11/15 08:09:38;;;;;;;83.10;40.22;;;;;;;9.53;100.00;100654.94;5054467;28;20032;-43
2022/11/15 08:12:04;;;;;;;79.88;39.05;;;;;;;9.53;100.00;100661.81;5054030;28;20135;-48
2022/11/15 08:14:29;;;;;;;83.47;40.22;;;;;;;9.53;100.00;100670.38;5054347;28;20025;-47
2022/11/15 08:16:55;;;;;;;72.97;37.47;;;;;;;9.54;100.00;100672.13;5054075;28;20024;-46
2022/11/15 08:19:20;;;;;;;76.95;39.58;;;;;;;9.56;100.00;100674.75;5053992;28;20086;-44
2022/11/15 08:21:45;;;;;;;71.05;38.38;;;;;;;9.57;100.00;100668.78;5053978;28;20032;-46
2022/11/15 08:24:10;;;;;;;72.05;38.38;;;;;;;9.57;100.00;100663.63;5054475;28;20369;-47
2022/11/15 08:26:36;;;;;;;74.50;35.25;;;;;;;9.55;100.00;100657.56;5053906;28;20032;-47
2022/11/15 08:29:01;;;;;;;72.28;35.67;;;;;;;9.52;100.00;100657.47;5053750;28;20100;-44
2022/11/15 08:31:26;;;;;;;72.53;37.08;;;;;;;9.51;100.00;100655.72;5053741;28;20437;-47
2022/11/15 08:33:52;;;;;;;67.07;34.22;;;;;;;9.52;100.00;100663.47;5053868;28;20028;-47
2022/11/15 08:36:17;;;;;;;65.88;32.97;;;;;;;9.49;100.00;100647.97;5053864;28;20063;-44
2022/11/15 08:38:43;;;;;;;60.50;33.28;;;;;;;9.48;100.00;100653.94;5053314;28;20147;-45
2022/11/15 08:41:30;;;;;;;63.60;32.00;;;;;;;9.53;100.00;100660.09;5053959;28;20032;-44
2022/11/15 08:43:56;;;;;;;68.45;31.45;;;;;;;9.51;100.00;100648.88;5053673;28;20044;-46
2022/11/15 08:46:21;;;;;;;61.20;30.75;;;;;;;9.52;100.00;100642.03;5053454;28;20392;-47
2022/11/15 08:48:46;;;;;;;53.13;28.25;;;;;;;9.52;100.00;100642.91;5053581;28;20396;-43
2022/11/15 08:51:12;;;;;;;63.17;29.17;;;;;;;9.51;100.00;100635.16;5053523;28;20029;-46
2022/11/15 08:53:37;;;;;;;58.83;28.40;;;;;;;9.51;100.00;100636.00;5053173;28;20503;-48
2022/11/15 08:56:07;;;;;;;53.38;28.92;;;;;;;9.52;100.00;100630.03;5053368;28;20445;-46
2022/11/15 08:58:33;;;;;;;53.38;27.77;;;;;;;9.54;100.00;100625.81;5053272;28;20519;-45
2022/11/15 09:00:58;;;;;;;51.97;28.88;;;;;;;9.58;100.00;100625.91;5053084;28;20025;-44
2022/11/15 09:03:23;;;;;;;54.22;28.75;;;;;;;9.67;100.00;100631.31;5052895;28;20033;-47
2022/11/15 09:05:53;;;;;;;56.67;28.83;;;;;;;9.77;100.00;100629.91;5053080;28;20036;-44
2022/11/15 09:08:18;;;;;;;48.72;27.85;;;;;;;9.82;100.00;100631.78;5053120;28;20464;-47
2022/11/15 09:10:43;;;;;;;43.28;23.98;;;;;;;9.84;100.00;100619.84;5052847;28;20032;-46
2022/11/15 09:13:09;;;;;;;39.80;22.35;;;;;;;9.84;100.00;100606.97;5053638;28;20021;-48
2022/11/15 09:15:34;;;;;;;38.58;22.20;;;;;;;9.87;100.00;100601.03;5052728;28;20188;-49
2022/11/15 09:17:59;;;;;;;37.97;20.17;;;;;;;9.92;100.00;100609.75;5052755;28;20056;-44
2022/11/15 09:20:25;;;;;;;31.65;18.83;;;;;;;10.01;100.00;100606.56;5053463;28;20052;-47
2022/11/15 09:22:50;;;;;;;35.40;18.67;;;;;;;10.04;100.00;100604.06;5052476;28;20033;-48
2022/11/15 09:25:15;;;;;;;28.73;15.48;;;;;;;10.02;100.00;100603.19;5052919;28;20024;-43
2022/11/15 09:27:41;;;;;;;27.23;14.93;;;;;;;10.01;100.00;100597.13;5052373;28;20025;-43
2022/11/15 09:30:06;;;;;;;25.60;15.63;;;;;;;10.02;100.00;100598.88;5052965;28;20036;-48
2022/11/15 09:32:32;;;;;;;24.40;14.50;;;;;;;10.02;100.00;100588.59;5053063;28;20021;-47
2022/11/15 09:34:57;;;;;;;30.23;14.30;;;;;;;10.03;100.00;100592.91;5052333;28;20798;-46
2022/11/15 09:37:22;;;;;;;23.40;13.05;;;;;;;10.10;100.00;100599.09;5052988;28;20056;-47
2022/11/15 09:39:48;;;;;;;23.85;14.23;;;;;;;10.15;100.00;100589.78;5052569;28;20365;-47
2022/11/15 09:42:40;;;;;;;25.15;13.32;;;;;;;10.15;100.00;100592.38;5052436;28;20021;-47
2022/11/15 09:45:23;;;;;;;23.02;13.32;;;;;;;10.19;100.00;100596.78;5053171;28;20029;-46
2022/11/15 09:48:00;;;;;;;20.48;11.60;;;;;;;10.35;100.00;100594.59;5052511;28;20096;-47
2022/11/15 09:50:49;;;;;;;22.25;12.35;;;;;;;10.46;100.00;100594.94;5052305;28;20078;-44
2022/11/15 09:53:24;;;;;;;22.27;11.80;;;;;;;10.62;100.00;100591.03;5052816;28;20103;-45
2022/11/15 09:56:00;;;;;;;14.73;9.20;;;;;;;10.71;100.00;100586.09;5052160;28;20071;-47
2022/11/15 09:59:09;;;;;;;21.00;9.80;;;;;;;11.01;100.00;100591.16;5052682;28;20136;-45
2022/11/15 10:01:42;;;;;;;16.10;8.77;;;;;;;11.16;99.40;100585.44;5030558;28;20392;-46
2022/11/15 10:04:08;;;;;;;20.60;8.00;;;;;;;11.35;97.55;100583.31;5050203;28;20045;-45
2022/11/15 10:06:38;;;;;;;14.35;6.35;;;;;;;11.49;95.68;100574.16;5052876;28;20368;-46
2022/11/15 10:09:15;;;;;;;14.40;5.95;;;;;;;11.48;93.01;100577.56;5052214;28;20047;-46
2022/11/15 10:11:41;;;;;;;17.25;5.20;;;;;;;11.42;89.00;100574.84;5051808;28;20474;-42
2022/11/15 10:14:23;;;;;;;12.55;4.50;;;;;;;11.44;88.70;100565.44;5054642;28;20479;-44
2022/11/15 10:17:21;;;;;;;16.17;4.63;;;;;;;11.48;89.32;100563.81;5056400;28;20096;-45
2022/11/15 10:19:56;;;;;;;10.88;4.10;;;;;;;11.47;85.02;100560.31;5056344;28;20369;-46
2022/11/15 10:22:25;;;;;;;13.80;4.22;;;;;;;11.62;84.67;100562.38;5056785;28;20167;-44
2022/11/15 10:24:58;;;;;;;10.90;4.07;;;;;;;11.80;82.69;100566.16;5055694;28;20029;-45
2022/11/15 10:27:23;;;;;;;12.07;4.07;;;;;;;11.73;83.14;100565.16;5056696;28;20020;-43
2022/11/15 10:29:50;;;;;;;13.60;4.10;;;;;;;11.53;84.78;100565.63;5055944;28;20475;-44
2022/11/15 10:32:19;;;;;;;17.85;3.80;;;;;;;11.39;84.67;100561.88;5056024;28;20024;-46
2022/11/15 10:34:46;;;;;;;13.98;3.95;;;;;;;11.22;82.43;100553.78;5056228;28;20591;-45
2022/11/15 10:37:11;;;;;;;10.77;3.42;;;;;;;11.11;81.35;100542.34;5056237;28;20052;-42
2022/11/15 10:39:36;;;;;;;12.90;3.20;;;;;;;11.06;80.92;100533.63;5055999;28;20376;-43
2022/11/15 10:42:17;;;;;;;11.60;3.33;;;;;;;11.18;82.19;100531.31;5055972;28;20024;-46
2022/11/15 10:44:44;;;;;;;14.95;3.28;;;;;;;11.19;80.50;100538.22;5055880;28;20021;-44
2022/11/15 10:47:30;;;;;;;14.07;3.38;;;;;;;11.22;79.57;100540.00;5055870;28;20036;-44
2022/11/15 10:49:59;;;;;;;22.92;3.55;;;;;;;11.27;79.21;100531.53;5055784;28;20037;-44
2022/11/15 10:52:25;;;;;;;11.13;3.25;;;;;;;11.51;79.53;100520.84;5055750;28;20032;-44
2022/11/15 10:55:16;;;;;;;15.70;3.50;;;;;;;11.68;79.51;100521.19;5055815;28;20025;-45
2022/11/15 10:57:50;;;;;;;12.15;3.50;;;;;;;11.84;77.49;100530.09;5052256;28;20037;-46
2022/11/15 11:00:18;;;;;;;10.88;3.38;;;;;;;11.99;76.17;100520.94;5055585;28;20036;-46
2022/11/15 11:03:08;;;;;;;17.38;5.25;;;;;;;12.29;77.78;100519.72;5055783;28;20024;-45
2022/11/15 11:05:38;;;;;;;12.27;4.13;;;;;;;12.33;73.70;100516.34;5055931;28;20070;-43
2022/11/15 11:08:24;;;;;;;19.30;7.45;;;;;;;12.39;74.47;100513.88;5055178;28;20017;-44
2022/11/15 11:10:58;;;;;;;18.13;7.57;;;;;;;12.38;73.48;100506.09;5055136;28;20037;-45
2022/11/15 11:13:37;;;;;;;11.23;3.78;;;;;;;12.31;73.43;100499.97;5055228;28;20076;-43
2022/11/15 11:16:17;;;;;;;16.30;3.97;;;;;;;12.71;72.45;100503.19;5055339;28;20060;-43
2022/11/15 11:19:01;;;;;;;12.85;4.32;;;;;;;12.80;73.91;100494.72;5055311;28;20024;-45
2022/11/15 11:21:38;;;;;;;17.23;4.30;;;;;;;12.61;72.25;100485.81;5055105;28;20108;-45
2022/11/15 11:24:25;;;;;;;17.83;6.72;;;;;;;12.26;74.51;100486.97;5055069;28;20029;-45